St. George, Utah Weather observations

Data are for observation ending at time listed.
 Day   Time    Ave.   Ave.  Ave.  Vector   Max.   Stn.    Total    Solar   Ave.  
  of    of     Air    Rel.  Wind   Wind    Wind   Baro.  Precip.   Rad.    Soil  
Year   Day     Temp.  Hum.  Speed  Dir.    Gust   Pres.                    Temp. 
2015   (MST)    F      %     mph   deg.    mph     mb.     in.     W/m2     F   
------------------------------------------------------------------------------
 116   15:50   67.9    22    3.6   150      9.4   915.9    0.00     834    66.4
 116   16:00   68.3    22    3.0    89      9.7   915.9    0.00     831    66.5
 116   16:10   67.7    22    2.4    50      5.5   916.0    0.00     814    66.7
 116   16:20   68.9    20    2.4    43      6.0   916.0    0.00     788    66.8
 116   16:30   68.1    20    4.3    52     13.0   915.7    0.00     297    67.0
 116   16:40   66.9    22    2.9    67      9.2   916.0    0.00     522    67.1
 116   16:50   67.6    20    2.5    75      7.2   916.1    0.00     480    67.2
 116   17:00   67.0    21    1.7   130      4.7   916.2    0.00     303    67.4
 116   17:10   67.4    20    2.4   209      6.0   916.3    0.00     423    67.5
 116   17:20   68.2    18    7.5   316     17.3   916.0    0.00     486    67.6
 116   17:30   67.2    18    8.5   330     16.1   916.1    0.00     405    67.7
 116   17:40   66.5    18    8.5   330     19.6   916.1    0.00     348    67.8
 116   17:50   66.2    20    8.1   323     15.1   916.2    0.00     306    67.8
 116   18:00   66.2    20    5.8   333     16.6   916.3    0.00     264    67.9
 116   18:10   65.8    20    7.0   332     14.7   916.3    0.00     161    67.9
 116   18:20   65.3    20    8.9   332     20.5   916.4    0.00     163    67.9
 116   18:30   65.1    21    5.9   345     15.7   916.5    0.00      50    67.9
 116   18:40   64.6    20    6.5   348     14.1   916.7    0.00      35    67.9
 116   18:50   64.3    21    4.4   348     10.4   916.8    0.00      23    67.9
 116   19:00   63.9    21    4.5   333     12.2   916.9    0.00      16    67.8
 116   19:10   63.5    21    3.6   347      9.1   917.0    0.00      11    67.8
 116   19:20   63.1    22    2.4   182      7.5   917.2    0.00       5    67.7
 116   19:30   63.2    21    2.0   212      5.0   917.4    0.00       3    67.6
 116   19:40   62.5    22    2.1   193      3.1   917.5    0.00       1    67.5
 116   19:50   62.2    23    3.2   186      5.9   917.5    0.00       0    67.5
 116   20:00   61.8    24    3.1   189      5.1   917.6    0.00       0    67.4
 116   20:10   61.2    25    1.1   211      3.3   917.8    0.00       0    67.3
 116   20:20   60.2    26    1.2   304      2.6   917.9    0.00       0    67.2
 116   20:30   59.5    27    1.7   232      4.3   918.1    0.00       0    67.1
 116   20:40   59.7    26    2.4   225      5.0   918.3    0.00       0    67.0
 116   20:50   59.7    26    2.6   212      5.9   918.4    0.00       0    66.9
 116   21:00   59.5    27    1.6   179      4.2   918.6    0.00       0    66.8
 116   21:10   59.2    28    1.7   211      3.5   918.6    0.00       0    66.7
 116   21:20   58.4    29    0.6   218      2.1   918.8    0.00       0    66.6
 116   21:30   57.3    30    0.5   254      1.5   919.0    0.00       0    66.5
 116   21:40   56.9    31    1.3   335      2.0   919.1    0.00       0    66.4
 116   21:50   56.4    32    1.0    19      1.7   919.1    0.00       0    66.3
 116   22:00   56.3    32    1.0   324      2.0   919.3    0.00       0    66.2
 116   22:10   56.5    31    0.7   248      2.6   919.4    0.00       0    66.1
 116   22:20   56.0    31    0.1   238      1.2   919.4    0.00       0    66.0
 116   22:30   55.5    32    0.6   251      1.8   919.4    0.00       0    65.9
 116   22:40   55.2    33    1.1   287      3.0   919.4    0.00       0    65.8
 116   22:50   55.1    34    1.9   335      3.1   919.6    0.00       0    65.7
 116   23:00   54.7    36    1.6   292      3.7   919.7    0.00       0    65.6
 116   23:10   54.7    34    0.8   279      3.1   919.7    0.00       0    65.4
 116   23:20   54.5    34    1.3   180      4.6   919.8    0.00       0    65.3
 116   23:30   55.0    33    1.3   228      3.4   919.9    0.00       0    65.2
 116   23:40   54.9    33    0.9   230      3.4   920.0    0.00       0    65.1
 116   23:50   54.5    34    0.8     6      2.9   920.1    0.00       0    65.0
 117    0:00   54.1    36    0.7    83      1.6   920.1    0.00       0    64.9
 117    0:10   54.0    35    0.7   308      1.9   920.1    0.00       0    64.8
 117    0:20   53.8    35    0.4   120      2.3   920.2    0.00       0    64.7
 117    0:30   53.5    38    0.6    68      2.0   920.3    0.00       0    64.6
 117    0:40   53.0    40    1.0    50      3.0   920.4    0.00       0    64.5
 117    0:50   52.4    41    0.8    36      1.8   920.5    0.00       0    64.4
 117    1:00   52.5    40    0.9   309      2.6   920.5    0.00       0    64.3
 117    1:10   52.8    38    0.8   276      2.0   920.4    0.00       0    64.2
 117    1:20   52.7    39    1.4   251      3.1   920.3    0.00       0    64.1
 117    1:30   52.6    40    1.2   301      2.4   920.2    0.00       0    64.0
 117    1:40   52.0    42    1.2   352      2.3   920.2    0.00       0    63.9
 117    1:50   51.4    44    0.6    17      1.5   920.3    0.00       0    63.8
 117    2:00   51.2    46    0.6     7      1.5   920.2    0.00       0    63.7
 117    2:10   51.2    44    0.4   351      1.3   920.2    0.00       0    63.6
 117    2:20   50.9    46    0.8    24      1.8   920.2    0.00       0    63.5
 117    2:30   50.9    47    0.6    80      1.6   920.2    0.00       0    63.4
 117    2:40   50.9    46    1.0   353      2.3   920.2    0.00       0    63.3
 117    2:50   50.3    47    0.3   343      1.5   920.3    0.00       0    63.2
 117    3:00   49.4    50    0.0   352      0.6   920.3    0.00       0    63.2
 117    3:10   48.8    51    0.3   326      1.0   920.5    0.00       0    63.1
 117    3:20   48.7    52    0.5   214      2.0   920.5    0.00       0    63.0
 117    3:30   48.4    53    0.6   232      2.1   920.5    0.00       0    62.9
 117    3:40   47.9    54    0.6   235      2.1   920.5    0.00       0    62.8
 117    3:50   47.6    56    1.1   341      2.4   920.5    0.00       0    62.7
 117    4:00   48.0    55    1.7   314      3.3   920.5    0.00       0    62.6
 117    4:10   47.7    56    1.2   340      2.7   920.6    0.00       0    62.5
 117    4:20   47.8    56    0.5   291      1.8   920.6    0.00       0    62.4
 117    4:30   47.2    59    0.5   184      2.1   920.7    0.00       0    62.3
 117    4:40   46.8    60    0.5   282      1.9   920.8    0.00       0    62.2
 117    4:50   46.7    60    0.9   334      2.7   920.9    0.00       0    62.2
 117    5:00   46.2    62    0.8   264      3.0   921.2    0.00       0    62.1
 117    5:10   45.9    63    0.4    29      1.2   921.2    0.00       0    62.0
 117    5:20   45.9    63    0.5     6      1.5   921.3    0.00       0    61.9
 117    5:30   45.9    63    0.3   192      2.4   921.5    0.00       0    61.8
 117    5:40   45.6    65    1.0   226      2.4   921.7    0.00       0    61.7
 117    5:50   45.4    65    1.2   352      2.5   921.9    0.00       3    61.6
 117    6:00   45.8    63    1.2   334      2.2   922.0    0.00       7    61.5
 117    6:10   46.0    63    0.5   204      1.7   922.1    0.00      12    61.4
 117    6:20   46.0    64    0.3   131      1.6   922.2    0.00      18    61.4
 117    6:30   46.5    64    0.5   230      1.4   922.3    0.00      22    61.3
 117    6:40   47.4    62    0.1   234      1.1   922.4    0.00      25    61.2
 117    6:50   48.5    60    0.6   231      1.2   922.5    0.00      34    61.1
 117    7:00   49.6    61    0.8   184      1.6   922.6    0.00      33    61.0
 117    7:10   50.6    57    0.7   213      1.8   922.6    0.00      32    60.9
 117    7:20   52.0    68    0.6    92      2.8   922.7    0.00     106    60.9
 117    7:30   52.2    60    0.9   149      2.5   922.9    0.00      65    60.8
 117    7:40   52.6    52    0.9   159      2.6   922.9    0.00     251    60.6
 117    7:50   53.5    48    0.3   108      2.5   923.1    0.00     337    60.3
 117    8:00   53.8    43    0.7   148      2.1   923.2    0.00     373    60.2
 117    8:10   55.9    41    0.7   190      2.0   923.2    0.00     410    60.0
 117    8:20   57.9    38    0.6   141      1.8   923.2    0.00     445    60.0
 117    8:30   57.6    36    1.5   183      3.1   923.3    0.00     480    59.9
 117    8:40   59.1    34    1.0   167      3.5   923.4    0.00     512    59.9
 117    8:50   59.7    33    1.3   141      3.3   923.4    0.00     546    59.9
 117    9:00   60.0    32    1.6   178      4.5   923.4    0.00     578    59.9
 117    9:10   60.4    31    2.0   172      5.8   923.4    0.00     609    59.9
 117    9:20   60.1    31    1.4   190      4.0   923.5    0.00     641    59.9
 117    9:30   61.1    30    1.9   224      4.8   923.5    0.00     670    59.9
 117    9:40   62.5    28    1.6   162      3.5   923.4    0.00     697    60.0
 117    9:50   62.6    28    2.0   155      5.0   923.4    0.00     724    60.0
 117   10:00   62.7    26    2.8   190      6.3   923.3    0.00     752    60.1
 117   10:10   63.5    26    2.0   180      5.8   923.3    0.00     776    60.2
 117   10:20   64.1    23    3.9   208      7.8   923.2    0.00     800    60.3
 117   10:30   64.1    24    3.4   185      7.3   923.1    0.00     823    60.4
 117   10:40   64.8    22    2.3   190      5.6   923.1    0.00     843    60.5
 117   10:50   65.6    21    3.7   232      8.3   923.0    0.00     861    60.7
 117   11:00   65.8    20    3.5   204      8.5   923.0    0.00     880    60.9
 117   11:10   66.3    21    3.3   203     10.4   922.8    0.00     897    61.0
 117   11:20   66.5    21    3.6   177      7.7   922.8    0.00     911    61.2
 117   11:30   67.9    21    3.1   176      9.1   922.7    0.00     923    61.4
 117   11:40   67.7    21    4.3   193      7.7   922.6    0.00     934    61.5
 117   11:50   68.8    21    3.1   221      9.2   922.5    0.00     943    61.8
 117   12:00   68.9    21    3.9   228      8.4   922.4    0.00     949    62.0
 117   12:10   69.9    20    3.1   241      6.2   922.3    0.00     956    62.2
 117   12:20   69.9    21    2.4   226      5.5   922.3    0.00     960    62.4
 117   12:30   69.8    22    1.4   263      4.0   922.2    0.00     961    62.7
 117   12:40   71.2    22    2.0   154      5.0   922.0    0.00     960    62.9
 117   12:50   71.7    21    2.7   176      5.7   921.9    0.00     960    63.2
 117   13:00   72.0    21    2.2   287      5.6   921.8    0.00     960    63.5
 117   13:10   72.4    21    2.0     7      5.2   921.7    0.00     956    63.8
 117   13:20   72.8    21    2.3   175      7.0   921.6    0.00     950    64.2
 117   13:30   73.2    21    2.4   165      6.5   921.5    0.00     943    64.5
 117   13:40   73.4    20    3.4   191      8.7   921.3    0.00     934    64.8
 117   13:50   72.2    20    4.8   188      8.4   921.1    0.00     928    65.1
 117   14:00   74.2    20    2.3   191      6.2   920.9    0.00     914    65.4
 117   14:10   74.5    19    3.4   229      7.4   920.8    0.00     901    65.7
 117   14:20   75.2    20    2.2   273      5.8   920.7    0.00     886    66.0
 117   14:30   74.6    20    2.2    10      5.3   920.5    0.00     869    66.3
 117   14:40   74.8    20    2.0    70      5.7   920.4    0.00     849    66.7
 117   14:50   75.1    20    2.4    72      6.5   920.1    0.00     829    67.0
 117   15:00   75.2    20    3.0   105      6.6   919.9    0.00     808    67.3
 117   15:10   76.2    19    2.8   107      6.6   919.7    0.00     784    67.6
 117   15:20   75.7    19    3.0   347      6.4   919.5    0.00     760    67.9
 117   15:30   76.1    19    2.6   185      6.1   919.4    0.00     735    68.1
 117   15:40   76.3    19    3.7   188      8.3   919.3    0.00     708    68.4

Return to St. George, Utah graphs page.


Western Regional Climate Center,wrcc@dri.edu